createdAt,value
2022-09-28T00:01:55.385Z,0.70
2022-09-28T00:04:23.550Z,0.93
2022-09-28T00:06:57.352Z,0.90
2022-09-28T00:09:33.788Z,0.80
2022-09-28T00:12:12.234Z,0.80
2022-09-28T00:23:30.598Z,1.10
2022-09-28T00:26:04.695Z,0.70
2022-09-28T00:28:45.253Z,0.80
2022-09-28T00:31:13.904Z,0.80
2022-09-28T00:33:43.046Z,1.00
2022-09-28T00:59:49.191Z,0.93
2022-09-28T01:06:26.279Z,0.80
2022-09-28T01:36:57.389Z,1.43
2022-09-28T01:39:43.156Z,1.50
2022-09-28T01:42:31.678Z,1.40
2022-09-28T01:45:06.166Z,1.33
2022-09-28T01:48:01.043Z,1.27
2022-09-28T02:17:36.716Z,1.30
2022-09-28T02:20:21.624Z,1.17
2022-09-28T02:22:59.918Z,1.00
2022-09-28T02:25:53.946Z,1.27
2022-09-28T02:28:30.921Z,1.17
2022-09-28T02:55:22.288Z,0.60
2022-09-28T02:58:19.762Z,0.67
2022-09-28T03:01:48.327Z,0.50
2022-09-28T03:04:31.136Z,0.50
2022-09-28T03:16:35.383Z,0.53
2022-09-28T03:21:56.460Z,0.70
2022-09-28T03:35:58.754Z,0.73
2022-09-28T03:38:35.617Z,0.47
2022-09-28T03:41:10.406Z,0.60
2022-09-28T03:43:37.967Z,0.50
2022-09-28T03:46:28.491Z,0.63
2022-09-28T03:51:49.860Z,0.40
2022-09-28T04:05:21.669Z,0.30
2022-09-28T04:27:39.500Z,0.43
2022-09-28T04:30:15.211Z,0.80
2022-09-28T04:35:38.439Z,1.00
2022-09-28T04:44:27.643Z,0.80
2022-09-28T04:47:05.172Z,0.60
2022-09-28T04:49:48.610Z,0.50
2022-09-28T05:01:33.858Z,0.30
2022-09-28T05:04:07.975Z,0.70
2022-09-28T05:06:47.423Z,0.60
2022-09-28T05:09:15.226Z,0.60
2022-09-28T05:11:43.459Z,0.50
2022-09-28T05:14:19.076Z,0.40
2022-09-28T05:16:50.604Z,0.80
2022-09-28T05:22:06.925Z,0.60
2022-09-28T05:24:42.839Z,0.70
2022-09-28T05:27:20.979Z,0.80
2022-09-28T05:29:48.507Z,0.80
2022-09-28T05:32:17.026Z,0.77
2022-09-28T05:34:51.017Z,0.70
2022-09-28T05:37:18.458Z,0.60
2022-09-28T05:39:48.146Z,0.53
2022-09-28T05:42:22.059Z,1.30
2022-09-28T05:44:50.520Z,0.87
2022-09-28T05:47:18.034Z,0.93
2022-09-28T05:49:52.150Z,1.00
2022-09-28T05:52:19.882Z,0.77
2022-09-28T05:54:47.733Z,0.90
2022-09-28T05:57:22.168Z,0.90
2022-09-28T05:59:55.369Z,1.03
2022-09-28T06:05:51.759Z,1.60
2022-09-28T06:11:36.417Z,1.90
2022-09-28T06:14:06.508Z,1.93
2022-09-28T06:16:47.312Z,1.83
2022-09-28T06:19:54.495Z,2.40
2022-09-28T06:22:38.231Z,2.87
2022-09-28T06:25:10.720Z,3.23
2022-09-28T06:28:01.253Z,3.00
2022-09-28T06:30:34.927Z,3.80
2022-09-28T06:33:10.174Z,2.97
2022-09-28T06:35:38.327Z,3.30
2022-09-28T06:38:06.369Z,3.00
2022-09-28T06:40:42.022Z,3.30
2022-09-28T06:43:19.384Z,3.13
2022-09-28T06:46:14.701Z,3.37
2022-09-28T06:48:52.029Z,3.10
2022-09-28T06:51:50.152Z,2.20
2022-09-28T06:54:18.218Z,2.20
2022-09-28T06:56:46.100Z,1.67
2022-09-28T06:59:23.385Z,1.80
2022-09-28T07:02:00.517Z,1.60
2022-09-28T07:04:37.567Z,1.80
2022-09-28T07:07:12.583Z,1.67
2022-09-28T07:19:34.067Z,1.90
2022-09-28T07:22:05.250Z,2.20
2022-09-28T07:24:48.144Z,2.57
2022-09-28T07:27:28.820Z,2.70
2022-09-28T07:30:07.557Z,2.80
2022-09-28T07:32:42.573Z,2.80
2022-09-28T07:35:24.586Z,2.40
2022-09-28T07:38:09.621Z,2.70
2022-09-28T07:41:02.642Z,2.90
2022-09-28T07:43:32.460Z,3.00
2022-09-28T07:46:00.042Z,3.30
2022-09-28T07:48:34.360Z,3.87
2022-09-28T07:51:01.847Z,3.27
2022-09-28T07:53:31.001Z,3.80
2022-09-28T07:56:04.657Z,2.90
2022-09-28T07:58:41.720Z,3.23
2022-09-28T08:01:24.480Z,3.13
2022-09-28T08:03:58.597Z,2.50
2022-09-28T08:06:36.339Z,2.27
2022-09-28T08:09:04.261Z,2.70
2022-09-28T08:11:31.666Z,2.87
2022-09-28T08:14:06.360Z,3.20
2022-09-28T08:16:33.880Z,3.63
2022-09-28T08:19:01.559Z,2.67
2022-09-28T08:21:53.311Z,2.87
2022-09-28T08:24:24.029Z,2.97
2022-09-28T08:26:51.486Z,2.90
2022-09-28T08:29:25.364Z,2.70
2022-09-28T08:31:52.983Z,3.57
2022-09-28T08:34:30.905Z,3.13
2022-09-28T08:37:07.686Z,2.70
2022-09-28T08:39:36.556Z,2.63
2022-09-28T08:53:06.133Z,3.00
2022-09-28T08:55:45.812Z,2.80
2022-09-28T08:58:51.267Z,2.63
2022-09-28T09:01:30.436Z,2.80
2022-09-28T09:04:14.701Z,2.73
2022-09-28T09:07:02.632Z,3.47
2022-09-28T09:09:37.198Z,2.53
2022-09-28T09:12:32.067Z,2.67
2022-09-28T09:15:25.574Z,2.90
2022-09-28T09:18:37.464Z,2.43
2022-09-28T09:21:17.555Z,2.70
2022-09-28T09:24:15.030Z,2.60
2022-09-28T09:26:49.974Z,2.20
2022-09-28T09:29:40.823Z,2.17
2022-09-28T09:32:39.012Z,2.20
2022-09-28T09:35:32.063Z,2.27
2022-09-28T09:38:26.082Z,2.13
2022-09-28T09:41:24.729Z,2.50
2022-09-28T09:44:53.018Z,2.40
2022-09-28T09:51:24.890Z,2.30
2022-09-28T09:54:26.547Z,2.40
2022-09-28T09:57:04.852Z,2.40
2022-09-28T09:59:36.626Z,2.37
2022-09-28T10:02:21.880Z,2.13
2022-09-28T10:04:51.799Z,1.97
2022-09-28T10:07:42.541Z,2.53
2022-09-28T10:10:32.983Z,2.63
2022-09-28T10:13:08.102Z,2.40
2022-09-28T10:15:49.862Z,2.23
2022-09-28T10:18:27.287Z,2.27
2022-09-28T10:20:57.584Z,2.33
2022-09-28T10:23:36.392Z,1.93
2022-09-28T10:26:25.735Z,2.33
2022-09-28T10:29:10.485Z,2.50
2022-09-28T10:31:49.668Z,2.20
2022-09-28T10:34:34.636Z,2.23
2022-09-28T10:37:09.866Z,2.10
2022-09-28T10:40:00.161Z,2.13
2022-09-28T10:42:31.467Z,2.20
2022-09-28T10:45:07.188Z,2.05
2022-09-28T10:47:36.528Z,2.00
2022-09-28T10:50:21.331Z,2.03
2022-09-28T10:53:12.527Z,1.60
2022-09-28T10:55:46.296Z,1.88
2022-09-28T10:58:26.516Z,1.80
2022-09-28T11:01:08.412Z,1.73
2022-09-28T11:03:56.265Z,1.45
2022-09-28T11:06:33.316Z,1.63
2022-09-28T11:09:20.759Z,1.90
2022-09-28T11:11:57.290Z,2.08
2022-09-28T11:14:26.577Z,1.80
2022-09-28T11:17:40.558Z,2.13
2022-09-28T11:20:28.281Z,2.20
2022-09-28T11:23:05.576Z,2.17
2022-09-28T11:25:33.243Z,1.80
2022-09-28T11:28:24.849Z,1.80
2022-09-28T11:30:54.167Z,1.77
2022-09-28T11:33:46.892Z,2.15
2022-09-28T11:36:14.564Z,1.50
2022-09-28T11:39:03.919Z,1.95
2022-09-28T11:41:48.876Z,2.17
2022-09-28T11:44:54.957Z,1.80
2022-09-28T11:48:12.770Z,1.70
2022-09-28T11:51:13.015Z,1.65
2022-09-28T11:53:58.065Z,1.42
2022-09-28T11:56:56.997Z,1.77
2022-09-28T11:59:59.207Z,1.88
2022-09-28T12:02:44.057Z,1.60
2022-09-28T12:05:22.722Z,1.70
2022-09-28T12:08:13.951Z,1.63
2022-09-28T12:10:54.049Z,1.70
2022-09-28T12:13:43.892Z,1.60
2022-09-28T12:16:38.990Z,1.40
2022-09-28T12:19:48.067Z,1.30
2022-09-28T12:22:40.997Z,1.48
2022-09-28T12:25:26.951Z,1.65
2022-09-28T12:27:58.110Z,1.80
2022-09-28T12:30:38.101Z,1.83
2022-09-28T12:33:12.159Z,1.92
2022-09-28T12:36:09.946Z,1.25
2022-09-28T12:39:21.678Z,1.02
2022-09-28T12:42:05.061Z,1.48
2022-09-28T12:44:59.640Z,1.35
2022-09-28T12:48:14.066Z,1.20
2022-09-28T12:50:58.133Z,1.20
2022-09-28T12:53:42.031Z,1.98
2022-09-28T12:56:21.613Z,4.15
2022-09-28T12:59:39.053Z,1.10
2022-09-28T13:02:28.684Z,1.02
2022-09-28T13:05:45.069Z,1.85
2022-09-28T13:08:27.101Z,1.38
2022-09-28T13:11:17.010Z,1.48
2022-09-28T13:13:54.749Z,2.15
2022-09-28T13:17:07.092Z,3.50
2022-09-28T13:19:59.120Z,2.08
2022-09-28T13:22:51.018Z,1.40
2022-09-28T13:25:21.377Z,1.25
2022-09-28T13:28:14.094Z,1.35
2022-09-28T13:30:44.375Z,1.30
2022-09-28T13:33:27.092Z,1.15
2022-09-28T13:35:55.094Z,1.35
2022-09-28T13:38:22.775Z,1.00
2022-09-28T13:41:21.509Z,1.50
2022-09-28T13:44:24.615Z,0.93
2022-09-28T13:47:11.164Z,1.50
2022-09-28T13:49:57.215Z,1.20
2022-09-28T13:52:57.221Z,1.20
2022-09-28T13:55:29.367Z,1.17
2022-09-28T13:58:07.042Z,1.10
2022-09-28T14:01:16.752Z,1.23
2022-09-28T14:04:29.061Z,1.08
2022-09-28T14:07:30.647Z,1.13
2022-09-28T14:10:31.094Z,0.90
2022-09-28T14:12:58.859Z,1.27
2022-09-28T14:15:48.134Z,1.42
2022-09-28T14:18:24.245Z,1.45
2022-09-28T14:21:08.114Z,1.10
2022-09-28T14:24:21.871Z,1.35
2022-09-28T14:27:18.116Z,1.20
2022-09-28T14:29:54.799Z,0.95
2022-09-28T14:32:31.247Z,1.10
2022-09-28T14:35:04.842Z,1.55
2022-09-28T14:38:07.174Z,2.40
2022-09-28T14:41:10.412Z,1.27
2022-09-28T14:44:04.174Z,1.02
2022-09-28T14:46:35.730Z,1.13
2022-09-28T14:49:26.313Z,1.50
2022-09-28T14:52:09.358Z,1.42
2022-09-28T14:54:52.269Z,0.90
2022-09-28T14:57:28.955Z,1.15
2022-09-28T15:00:06.195Z,1.40
2022-09-28T15:02:38.527Z,1.20
2022-09-28T15:05:34.246Z,1.02
2022-09-28T15:08:07.596Z,0.98
2022-09-28T15:10:46.144Z,0.90
2022-09-28T15:13:24.980Z,1.13
2022-09-28T15:16:04.360Z,1.23
2022-09-28T15:18:42.608Z,1.20
2022-09-28T15:21:18.179Z,0.88
2022-09-28T15:23:47.077Z,0.90
2022-09-28T15:26:37.225Z,0.90
2022-09-28T15:29:17.767Z,4.20
2022-09-28T15:31:54.676Z,4.13
2022-09-28T15:34:54.478Z,1.25
2022-09-28T15:37:39.642Z,1.20
2022-09-28T15:40:17.427Z,0.60
2022-09-28T15:42:58.365Z,1.38
2022-09-28T15:45:38.706Z,1.10
2022-09-28T15:48:39.214Z,2.35
2022-09-28T15:51:12.741Z,1.10
2022-09-28T15:54:06.205Z,1.30
2022-09-28T15:56:50.385Z,1.13
2022-09-28T16:00:01.620Z,1.35
2022-09-28T16:02:29.840Z,1.17
2022-09-28T16:05:08.282Z,1.00
2022-09-28T16:07:41.593Z,1.30
2022-09-28T16:10:19.173Z,1.05
2022-09-28T16:12:58.885Z,1.10
2022-09-28T16:15:34.591Z,1.15
2022-09-28T16:18:12.988Z,1.10
2022-09-28T16:20:49.216Z,1.20
2022-09-28T16:23:34.114Z,1.03
2022-09-28T16:26:12.206Z,0.95
2022-09-28T16:28:39.781Z,1.30
2022-09-28T16:31:20.425Z,1.30
2022-09-28T16:33:55.335Z,1.10
2022-09-28T16:36:34.529Z,1.35
2022-09-28T16:39:02.298Z,1.43
2022-09-28T16:41:30.859Z,1.87
2022-09-28T16:44:09.353Z,1.20
2022-09-28T16:46:37.873Z,1.20
2022-09-28T16:49:07.201Z,1.40
2022-09-28T16:51:41.364Z,1.50
2022-09-28T16:54:42.108Z,1.40
2022-09-28T16:57:20.174Z,1.30
2022-09-28T16:59:47.560Z,1.50
2022-09-28T17:02:46.264Z,1.60
2022-09-28T17:05:19.419Z,1.43
2022-09-28T17:08:08.202Z,1.63
2022-09-28T17:13:49.239Z,1.90
2022-09-28T17:16:28.213Z,2.10
2022-09-28T17:19:16.317Z,1.50
2022-09-28T17:21:45.794Z,1.60
2022-09-28T17:24:15.679Z,1.80
2022-09-28T17:26:51.482Z,1.20
2022-09-28T17:29:20.057Z,1.10
2022-09-28T17:31:48.839Z,1.50
2022-09-28T17:34:23.623Z,1.33
2022-09-28T17:36:51.812Z,1.57
2022-09-28T17:39:20.052Z,1.80
2022-09-28T17:41:54.751Z,1.70
2022-09-28T17:44:22.340Z,1.90
2022-09-28T17:46:51.443Z,2.30
2022-09-28T17:49:28.744Z,1.77
2022-09-28T17:52:16.708Z,1.60
2022-09-28T17:54:51.532Z,1.50
2022-09-28T17:57:19.191Z,1.80
2022-09-28T17:59:49.367Z,1.77
2022-09-28T18:02:23.454Z,2.13
2022-09-28T18:04:52.469Z,1.60
2022-09-28T18:07:20.358Z,2.37
2022-09-28T18:10:50.744Z,2.13
2022-09-28T18:14:14.644Z,2.03
2022-09-28T18:17:45.412Z,2.10
2022-09-28T18:21:09.271Z,2.20
2022-09-28T18:24:44.225Z,1.80
2022-09-28T18:28:08.216Z,2.40
2022-09-28T18:31:39.594Z,2.20
2022-09-28T18:35:03.372Z,2.40
2022-09-28T18:38:36.322Z,2.27
2022-09-28T18:42:00.014Z,2.10
2022-09-28T18:45:32.492Z,2.03
2022-09-28T18:48:56.529Z,3.00
2022-09-28T18:52:26.448Z,7.13
2022-09-28T18:56:05.495Z,2.20
2022-09-28T18:59:35.498Z,2.23
2022-09-28T19:02:37.524Z,2.40
2022-09-28T19:05:12.524Z,2.27
2022-09-28T19:07:40.088Z,2.03
2022-09-28T19:10:08.135Z,2.33
2022-09-28T19:12:45.158Z,2.40
2022-09-28T19:15:12.975Z,2.37
2022-09-28T19:17:40.479Z,2.20
2022-09-28T19:20:15.316Z,2.30
2022-09-28T19:22:48.871Z,2.47
2022-09-28T19:25:23.227Z,2.07
2022-09-28T19:27:51.025Z,2.60
2022-09-28T19:30:18.514Z,2.47
2022-09-28T19:32:52.148Z,2.80
2022-09-28T19:35:19.654Z,2.40
2022-09-28T19:37:50.029Z,2.70
2022-09-28T19:40:26.988Z,2.60
2022-09-28T19:42:54.640Z,2.57
2022-09-28T19:45:28.146Z,2.60
2022-09-28T19:48:06.062Z,2.53
2022-09-28T19:50:33.552Z,2.53
2022-09-28T19:53:29.918Z,3.03
2022-09-28T19:56:12.255Z,3.07
2022-09-28T19:58:46.888Z,2.60
2022-09-28T20:01:14.594Z,3.63
2022-09-28T20:03:42.013Z,3.27
2022-09-28T20:06:17.473Z,4.00
2022-09-28T20:08:45.250Z,4.17
2022-09-28T20:11:14.153Z,5.40
2022-09-28T20:13:50.915Z,4.10
2022-09-28T20:16:24.416Z,5.43
2022-09-28T20:19:05.195Z,5.10
2022-09-28T20:21:32.709Z,4.30
2022-09-28T20:24:00.647Z,3.73
2022-09-28T20:26:35.250Z,3.57
2022-09-28T20:29:08.026Z,3.00
2022-09-28T20:31:36.587Z,2.60
2022-09-28T20:34:11.502Z,2.50
2022-09-28T20:36:39.006Z,3.13
2022-09-28T20:39:06.418Z,3.90
2022-09-28T20:41:42.504Z,11.93
2022-09-28T20:44:10.159Z,14.47
2022-09-28T20:46:38.314Z,5.03
2022-09-28T20:49:14.833Z,3.13
2022-09-28T20:51:42.262Z,3.70
2022-09-28T20:54:29.917Z,3.40
2022-09-28T20:56:57.237Z,3.90
2022-09-28T20:59:26.481Z,3.87
2022-09-28T21:02:00.880Z,3.20
2022-09-28T21:04:28.437Z,2.90
2022-09-28T21:06:56.058Z,2.90
2022-09-28T21:09:29.846Z,2.80
2022-09-28T21:11:57.299Z,2.43
2022-09-28T21:14:27.247Z,2.90
2022-09-28T21:17:04.835Z,3.10
2022-09-28T21:19:32.341Z,2.73
2022-09-28T21:21:59.712Z,3.00
2022-09-28T21:24:33.775Z,2.70
2022-09-28T21:27:01.319Z,2.90
2022-09-28T21:29:31.618Z,2.90
2022-09-28T21:32:05.862Z,2.93
2022-09-28T21:34:33.268Z,2.80
2022-09-28T21:37:00.707Z,2.93
2022-09-28T21:39:37.478Z,3.00
2022-09-28T21:42:07.427Z,3.63
2022-09-28T21:44:34.797Z,2.87
2022-09-28T21:47:08.383Z,2.93
2022-09-28T21:49:40.516Z,2.87
2022-09-28T21:52:10.935Z,3.10
2022-09-28T21:54:45.068Z,2.80
2022-09-28T21:57:12.457Z,2.57
2022-09-28T21:59:39.869Z,2.73
2022-09-28T22:02:14.058Z,2.83
2022-09-28T22:04:41.415Z,2.60
2022-09-28T22:07:08.888Z,2.83
2022-09-28T22:09:43.074Z,2.57
2022-09-28T22:12:10.763Z,2.77
2022-09-28T22:14:43.457Z,2.97
2022-09-28T22:17:17.426Z,2.73
2022-09-28T22:19:44.957Z,2.53
2022-09-28T22:22:12.270Z,2.97
2022-09-28T22:24:46.433Z,2.87
2022-09-28T22:27:14.893Z,2.77
2022-09-28T22:29:42.963Z,2.57
2022-09-28T22:32:17.420Z,2.63
2022-09-28T22:34:51.871Z,2.40
2022-09-28T22:37:19.238Z,2.53
2022-09-28T22:39:53.003Z,2.53
2022-09-28T22:42:20.725Z,2.40
2022-09-28T22:44:48.921Z,2.23
2022-09-28T22:47:22.952Z,2.33
2022-09-28T22:49:53.077Z,2.40
2022-09-28T22:52:20.479Z,2.17
2022-09-28T22:55:00.836Z,1.90
2022-09-28T22:57:31.012Z,2.23
2022-09-28T23:00:03.588Z,2.47
2022-09-28T23:02:37.401Z,1.87
2022-09-28T23:05:05.226Z,1.90
2022-09-28T23:07:34.782Z,2.17
2022-09-28T23:10:10.845Z,2.30
2022-09-28T23:12:38.976Z,2.53
2022-09-28T23:15:07.330Z,2.40
2022-09-28T23:17:40.806Z,2.47
2022-09-28T23:20:08.526Z,2.60
2022-09-28T23:22:35.868Z,2.77
2022-09-28T23:25:12.558Z,2.20
2022-09-28T23:27:40.016Z,2.40
2022-09-28T23:30:07.937Z,2.23
2022-09-28T23:32:41.590Z,2.23
2022-09-28T23:35:09.934Z,2.50
2022-09-28T23:37:37.820Z,1.97
2022-09-28T23:40:17.802Z,2.30
2022-09-28T23:42:45.231Z,2.07
2022-09-28T23:45:12.940Z,2.30
2022-09-28T23:47:47.290Z,2.13
2022-09-28T23:50:16.990Z,2.00
2022-09-28T23:53:04.952Z,2.10
2022-09-28T23:55:32.430Z,2.20
2022-09-28T23:58:02.281Z,2.10
